Terminal Aerodrome Forecast
Issued by NWS Cleveland, OH

Home | Current Version | Previous Version | Text Only | Print | Product List | Glossary On
Versions: 1 2 3 4 5 6 7 8 9 10 11 12 13 14 15 16 17 18 19 20 21
947
FTUS41 KCLE 160829 AAA
TAFCAK
TAF AMD
KCAK 160829Z 1608/1706 24012KT 6SM -SN OVC040
      TEMPO 1608/1612 2SM -SHSN BKN025
     FM162000 23009KT P6SM SCT050 BKN100
     FM170400 19005KT P6SM SCT060 BKN200=

USA.gov is the U.S. government's official web portal to all federal, state and local government web resources and services.